Time;durP1;ratioP1;P1;durP2;ratioP2;P2;SDS_P1;SDS_P2;PMS_P1;PMS_P2;Temp;Humidity;BMP_temperature;BMP_pressure;BME280_temperature;BME280_humidity;BME280_pressure;Samples;Min_cycle;Max_cycle;Signal;HPM_P1;HPM_P2
2022/12/08 00:02:16;;;;;;;46.08;24.83;;;;;;;2.31;100.00;101005.66;4883627;29;20052;-77
2022/12/08 00:10:10;;;;;;;52.30;24.73;;;;;;;2.24;100.00;100978.63;4879846;29;20066;-77
2022/12/08 00:12:35;;;;;;;45.40;22.23;;;;;;;2.29;100.00;100982.00;4880814;29;20052;-77
2022/12/08 00:15:01;;;;;;;50.63;23.75;;;;;;;2.30;100.00;100972.34;4886118;29;20044;-77
2022/12/08 00:17:27;;;;;;;50.88;23.88;;;;;;;2.26;100.00;100974.22;4879809;29;20408;-77
2022/12/08 00:19:52;;;;;;;51.05;23.58;;;;;;;2.34;100.00;100974.00;4877073;29;20087;-76
2022/12/08 00:22:18;;;;;;;50.28;23.55;;;;;;;2.36;100.00;100963.41;4877401;29;20059;-78
2022/12/08 00:24:45;;;;;;;49.30;22.40;;;;;;;2.38;100.00;100961.63;4876036;29;20037;-75
2022/12/08 00:27:14;;;;;;;49.05;21.65;;;;;;;2.29;100.00;100958.31;4877313;29;20481;-76
2022/12/08 00:29:43;;;;;;;42.00;22.15;;;;;;;2.34;100.00;100951.16;4879539;29;20044;-77
2022/12/08 00:32:08;;;;;;;47.35;24.00;;;;;;;2.40;100.00;100944.88;4875933;29;20092;-76
2022/12/08 00:34:34;;;;;;;53.92;23.25;;;;;;;2.41;100.00;100943.09;4883894;29;20849;-76
2022/12/08 00:37:00;;;;;;;45.67;21.20;;;;;;;2.44;100.00;100941.25;4878071;29;20037;-78
2022/12/08 00:39:25;;;;;;;44.83;21.40;;;;;;;2.46;100.00;100941.19;4875317;29;20529;-76
2022/12/08 00:42:12;;;;;;;45.05;21.17;;;;;;;2.46;100.00;100936.81;4881174;29;20036;-77
2022/12/08 00:44:42;;;;;;;45.85;20.35;;;;;;;2.50;100.00;100934.94;4883129;29;20040;-76
2022/12/08 00:47:08;;;;;;;46.05;20.77;;;;;;;2.43;100.00;100936.03;4883952;29;20040;-78
2022/12/08 00:49:34;;;;;;;40.45;18.70;;;;;;;2.49;100.00;100941.97;4878873;29;20570;-77
2022/12/08 00:51:59;;;;;;;44.53;18.33;;;;;;;2.60;100.00;100925.88;4876909;29;20525;-75
2022/12/08 00:54:25;;;;;;;43.63;18.85;;;;;;;2.64;100.00;100931.94;4877781;29;20084;-77
2022/12/08 00:56:50;;;;;;;38.75;17.60;;;;;;;2.60;100.00;100925.88;4880305;29;20051;-76
2022/12/08 00:59:16;;;;;;;36.25;17.02;;;;;;;2.71;100.00;100918.56;4875994;29;20044;-77
2022/12/08 01:01:44;;;;;;;37.47;16.90;;;;;;;2.74;100.00;100922.84;4870239;29;20037;-75
2022/12/08 01:04:12;;;;;;;27.83;15.35;;;;;;;2.73;100.00;100911.47;4870956;29;20254;-75
2022/12/08 01:06:38;;;;;;;35.72;16.42;;;;;;;2.76;100.00;100913.13;4878239;29;20041;-77
2022/12/08 01:09:07;;;;;;;32.17;15.38;;;;;;;2.82;100.00;100908.56;4879904;29;20080;-76
2022/12/08 01:11:34;;;;;;;35.22;15.98;;;;;;;2.78;100.00;100911.31;4875024;29;20770;-78
2022/12/08 01:13:59;;;;;;;30.75;14.75;;;;;;;2.83;100.00;100910.28;4879762;29;20081;-76
2022/12/08 01:16:30;;;;;;;32.85;16.20;;;;;;;2.85;100.00;100903.16;4873832;29;20148;-77
2022/12/08 01:18:58;;;;;;;30.20;15.70;;;;;;;2.89;100.00;100906.59;4877761;29;20047;-77
2022/12/08 01:21:24;;;;;;;32.53;15.48;;;;;;;2.92;100.00;100901.22;4885506;29;20144;-76
2022/12/08 01:23:49;;;;;;;32.70;15.00;;;;;;;2.92;100.00;100905.66;4869537;29;20123;-77
2022/12/08 01:26:16;;;;;;;27.17;14.52;;;;;;;2.98;100.00;100910.72;4878226;29;20044;-76
2022/12/08 01:28:42;;;;;;;26.83;14.52;;;;;;;3.00;100.00;100903.63;4883932;29;20029;-78
2022/12/08 01:31:14;;;;;;;31.42;15.32;;;;;;;3.00;100.00;100907.09;4870760;29;20639;-77
2022/12/08 01:33:40;;;;;;;26.48;14.48;;;;;;;3.03;100.00;100908.81;4881883;29;20056;-77
2022/12/08 01:36:06;;;;;;;26.75;13.82;;;;;;;3.05;100.00;100912.22;4871956;29;20776;-76
2022/12/08 01:38:32;;;;;;;27.92;13.20;;;;;;;3.09;100.00;100909.47;4879325;29;20124;-76
2022/12/08 01:40:58;;;;;;;26.60;12.73;;;;;;;3.11;100.00;100907.66;4871440;29;20059;-78
2022/12/08 01:43:23;;;;;;;27.00;12.82;;;;;;;3.11;100.00;100904.13;4882958;29;20231;-77
2022/12/08 01:45:49;;;;;;;29.00;12.73;;;;;;;3.16;100.00;100910.13;4879077;29;20047;-76
2022/12/08 01:48:24;;;;;;;25.00;13.35;;;;;;;3.14;100.00;100906.69;4885380;29;20045;-78
2022/12/08 01:50:52;;;;;;;33.67;13.18;;;;;;;3.12;100.00;100905.88;4882886;29;20044;-77
2022/12/08 01:53:27;;;;;;;29.48;14.57;;;;;;;3.12;100.00;100897.97;4876318;29;20048;-77
2022/12/08 01:55:57;;;;;;;30.55;15.48;;;;;;;3.12;100.00;100903.25;4877593;29;20033;-77
2022/12/08 01:58:31;;;;;;;28.90;15.27;;;;;;;3.13;100.00;100883.03;4876736;29;20056;-76
2022/12/08 02:00:56;;;;;;;34.50;15.73;;;;;;;3.07;100.00;100887.59;4872066;29;20045;-77
2022/12/08 02:03:52;;;;;;;33.53;16.77;;;;;;;3.07;100.00;100878.81;4879280;29;20052;-77
2022/12/08 02:06:18;;;;;;;39.55;16.27;;;;;;;3.04;100.00;100881.53;4874947;29;20033;-78
2022/12/08 02:08:44;;;;;;;30.90;17.23;;;;;;;3.06;100.00;100882.34;4884942;29;20584;-77
2022/12/08 02:11:11;;;;;;;37.58;17.83;;;;;;;3.07;100.00;100870.91;4873214;29;20982;-77
2022/12/08 02:13:37;;;;;;;35.28;16.77;;;;;;;2.98;100.00;100874.69;4879812;29;20790;-76
2022/12/08 02:16:09;;;;;;;41.28;18.50;;;;;;;3.01;100.00;100865.81;4877284;29;20045;-77
2022/12/08 02:18:47;;;;;;;43.43;19.37;;;;;;;3.01;100.00;100866.72;4884894;29;20049;-78
2022/12/08 02:21:28;;;;;;;38.53;19.38;;;;;;;3.03;100.00;100867.50;4875425;29;20129;-77
2022/12/08 02:24:17;;;;;;;39.65;21.30;;;;;;;3.04;100.00;100866.59;4879196;29;20104;-77
2022/12/08 02:27:06;;;;;;;41.05;20.40;;;;;;;3.02;100.00;100860.53;4880707;29;20160;-78
2022/12/08 02:29:53;;;;;;;39.95;21.08;;;;;;;3.02;100.00;100859.66;4883593;29;20625;-76
2022/12/08 02:32:27;;;;;;;44.05;21.77;;;;;;;3.02;100.00;100857.91;4881687;29;20051;-76
2022/12/08 02:35:21;;;;;;;44.90;22.63;;;;;;;3.03;100.00;100859.63;4883130;29;20040;-78
2022/12/08 02:38:14;;;;;;;50.58;21.52;;;;;;;3.11;100.00;100856.72;4875986;29;20049;-77
2022/12/08 02:40:58;;;;;;;48.95;22.08;;;;;;;3.18;100.00;100863.53;4875673;29;20484;-78
2022/12/08 02:43:36;;;;;;;47.42;21.63;;;;;;;3.14;100.00;100855.78;4876479;29;20037;-77
2022/12/08 02:46:07;;;;;;;45.90;20.75;;;;;;;3.20;100.00;100852.94;4881162;29;20044;-78
2022/12/08 02:48:33;;;;;;;40.08;21.10;;;;;;;3.15;100.00;100853.06;4879789;29;20049;-78
2022/12/08 02:51:01;;;;;;;40.25;20.13;;;;;;;3.15;100.00;100852.22;4881611;29;20050;-77
2022/12/08 02:53:30;;;;;;;42.55;20.58;;;;;;;3.13;100.00;100847.00;4878136;29;20602;-76
2022/12/08 02:56:13;;;;;;;41.55;19.80;;;;;;;3.14;100.00;100847.88;4879196;29;20049;-78
2022/12/08 02:59:11;;;;;;;40.90;20.15;;;;;;;3.13;100.00;100841.75;4880950;29;20049;-77
2022/12/08 03:02:10;;;;;;;38.78;16.83;;;;;;;3.16;100.00;100830.22;4870782;29;20048;-77
2022/12/08 03:05:13;;;;;;;37.50;18.05;;;;;;;3.16;100.00;100828.44;4887360;29;20037;-77
2022/12/08 03:07:52;;;;;;;40.35;17.00;;;;;;;3.15;100.00;100820.59;4880162;29;20732;-78
2022/12/08 03:10:30;;;;;;;42.70;17.58;;;;;;;3.17;100.00;100810.88;4883292;29;20044;-76
2022/12/08 03:13:07;;;;;;;41.65;16.95;;;;;;;3.18;100.00;100816.09;4889325;29;20052;-76
2022/12/08 03:15:35;;;;;;;40.35;17.40;;;;;;;3.17;100.00;100813.53;4885736;29;20055;-78
2022/12/08 03:18:02;;;;;;;32.28;15.38;;;;;;;3.17;100.00;100811.75;4888410;29;20422;-77
2022/12/08 03:20:29;;;;;;;32.22;15.55;;;;;;;3.14;100.00;100813.63;4879129;29;20055;-76
2022/12/08 03:22:59;;;;;;;34.33;15.05;;;;;;;3.11;100.00;100799.66;4876808;29;20045;-78
2022/12/08 03:25:26;;;;;;;39.08;15.15;;;;;;;3.14;100.00;100803.94;4888332;29;20033;-76
2022/12/08 03:27:52;;;;;;;40.25;15.80;;;;;;;3.15;100.00;100802.16;4857373;29;20147;-79
2022/12/08 03:30:18;;;;;;;34.33;15.00;;;;;;;3.11;100.00;100793.50;4881194;29;20092;-77
2022/12/08 03:32:53;;;;;;;26.50;13.43;;;;;;;3.05;100.00;100786.66;4885667;29;20044;-77
2022/12/08 03:35:23;;;;;;;29.50;13.43;;;;;;;3.10;100.00;100781.22;4886457;29;20053;-76
2022/12/08 03:37:49;;;;;;;29.60;13.52;;;;;;;3.02;100.00;100778.03;4877988;29;20570;-78
2022/12/08 03:40:18;;;;;;;30.77;15.00;;;;;;;3.05;100.00;100772.63;4880934;29;20074;-76
2022/12/08 03:42:43;;;;;;;27.63;13.63;;;;;;;3.04;100.00;100782.31;4877241;29;20148;-78
2022/12/08 03:45:09;;;;;;;31.55;14.70;;;;;;;3.04;100.00;100784.09;4876388;29;20135;-76
2022/12/08 03:47:35;;;;;;;34.35;15.30;;;;;;;3.03;100.00;100770.06;4878990;29;20036;-77
2022/12/08 03:50:00;;;;;;;31.30;14.77;;;;;;;3.04;100.00;100771.78;4874496;29;20040;-77
2022/12/08 03:52:26;;;;;;;29.85;14.02;;;;;;;3.07;100.00;100769.03;4886583;29;20040;-78
2022/12/08 03:54:51;;;;;;;35.15;15.27;;;;;;;3.10;100.00;100770.69;4884488;29;20573;-75
2022/12/08 03:57:16;;;;;;;32.00;14.90;;;;;;;3.09;100.00;100766.34;4884722;29;20036;-78
2022/12/08 03:59:42;;;;;;;36.65;16.67;;;;;;;3.14;100.00;100768.84;4879465;29;20595;-79
2022/12/08 04:02:07;;;;;;;34.47;15.70;;;;;;;3.18;100.00;100765.19;4888593;29;20040;-78
2022/12/08 04:04:33;;;;;;;45.15;17.05;;;;;;;3.11;100.00;100754.88;4880192;29;20033;-77
2022/12/08 04:06:58;;;;;;;36.90;16.60;;;;;;;3.10;100.00;100753.13;4886794;29;21287;-77
2022/12/08 04:09:24;;;;;;;38.88;16.42;;;;;;;3.08;100.00;100754.94;4883034;29;20553;-76
2022/12/08 04:11:49;;;;;;;32.72;15.88;;;;;;;3.09;100.00;100748.75;4874190;29;20081;-78
2022/12/08 04:14:15;;;;;;;36.13;16.27;;;;;;;3.12;100.00;100753.09;4878632;29;20033;-77
2022/12/08 04:16:40;;;;;;;33.20;15.85;;;;;;;3.10;100.00;100744.34;4891026;29;20791;-78
2022/12/08 04:19:06;;;;;;;33.70;14.80;;;;;;;3.14;100.00;100747.75;4877459;29;20041;-77
2022/12/08 04:21:33;;;;;;;33.05;14.10;;;;;;;3.14;100.00;100745.13;4886195;29;20524;-77
2022/12/08 04:23:58;;;;;;;30.08;14.05;;;;;;;3.14;100.00;100745.97;4876845;29;20092;-76
2022/12/08 04:26:24;;;;;;;33.35;13.82;;;;;;;3.14;100.00;100740.72;4883122;29;20143;-77
2022/12/08 04:28:49;;;;;;;29.08;14.15;;;;;;;3.10;100.00;100745.22;4876779;29;20045;-77
2022/12/08 04:31:15;;;;;;;24.75;12.80;;;;;;;3.14;100.00;100735.44;4874443;29;20056;-78
2022/12/08 04:33:40;;;;;;;26.95;11.85;;;;;;;3.14;100.00;100731.94;4878691;29;20156;-77
2022/12/08 04:36:06;;;;;;;27.85;13.00;;;;;;;3.15;100.00;100725.75;4875056;29;20467;-77
2022/12/08 04:38:33;;;;;;;20.88;11.18;;;;;;;3.12;100.00;100726.75;4887158;29;20048;-78
2022/12/08 04:40:58;;;;;;;22.52;11.45;;;;;;;3.13;100.00;100733.72;4878271;29;20037;-77
2022/12/08 04:43:24;;;;;;;25.30;12.43;;;;;;;3.11;100.00;100732.91;4876673;29;20100;-77
2022/12/08 04:45:49;;;;;;;21.50;10.10;;;;;;;3.10;100.00;100739.09;4884931;29;20044;-77
2022/12/08 04:48:15;;;;;;;25.20;10.57;;;;;;;3.13;100.00;100736.34;4874550;29;20056;-78
2022/12/08 04:50:41;;;;;;;18.65;10.00;;;;;;;3.09;100.00;100732.09;4877911;29;20051;-77
2022/12/08 04:53:08;;;;;;;19.77;10.18;;;;;;;3.13;100.00;100724.97;4882070;29;20040;-78
2022/12/08 04:55:37;;;;;;;15.10;8.40;;;;;;;3.09;100.00;100735.59;4878643;29;20164;-78
2022/12/08 04:58:03;;;;;;;13.82;7.75;;;;;;;3.09;100.00;100737.38;4874729;29;20100;-78
2022/12/08 05:00:28;;;;;;;12.95;7.78;;;;;;;3.10;100.00;100739.09;4878921;29;20439;-78
2022/12/08 05:02:54;;;;;;;15.23;7.95;;;;;;;3.07;100.00;100741.84;4878143;29;20206;-78
2022/12/08 05:05:19;;;;;;;14.55;7.45;;;;;;;3.09;100.00;100734.75;4884033;29;20054;-78
2022/12/08 05:07:45;;;;;;;13.02;7.03;;;;;;;3.16;100.00;100732.75;4877394;29;20513;-77
2022/12/08 05:10:10;;;;;;;16.65;7.85;;;;;;;3.14;100.00;100732.81;4874269;29;20129;-78
2022/12/08 05:12:36;;;;;;;12.30;7.35;;;;;;;3.14;100.00;100735.44;4878273;29;20051;-78
2022/12/08 05:15:01;;;;;;;13.63;7.25;;;;;;;3.17;100.00;100726.59;4874240;29;20041;-77
2022/12/08 05:17:27;;;;;;;12.48;7.38;;;;;;;3.15;100.00;100736.28;4878336;29;20044;-78
2022/12/08 05:19:52;;;;;;;19.05;7.75;;;;;;;3.14;100.00;100731.94;4877298;29;20401;-77
2022/12/08 05:22:18;;;;;;;16.67;8.60;;;;;;;3.14;100.00;100730.16;4880472;29;20041;-76
2022/12/08 05:24:43;;;;;;;15.80;8.43;;;;;;;3.12;100.00;100724.09;4886496;29;20836;-79
2022/12/08 05:27:09;;;;;;;20.60;10.23;;;;;;;3.12;100.00;100724.09;4873815;29;20044;-77
2022/12/08 05:29:34;;;;;;;15.98;9.20;;;;;;;3.08;100.00;100727.75;4877963;29;20092;-76
2022/12/08 05:32:00;;;;;;;20.60;9.45;;;;;;;3.11;100.00;100725.00;4871932;29;20041;-77
2022/12/08 05:34:25;;;;;;;17.67;8.82;;;;;;;3.14;100.00;100719.63;4878883;29;20581;-77
2022/12/08 05:36:51;;;;;;;14.57;7.70;;;;;;;3.05;100.00;100723.44;4880671;29;20047;-76
2022/12/08 05:39:16;;;;;;;24.33;9.32;;;;;;;3.07;100.00;100721.63;4879816;29;20041;-77
2022/12/08 05:41:42;;;;;;;20.95;9.68;;;;;;;3.08;100.00;100714.59;4880510;29;20588;-76
2022/12/08 05:44:08;;;;;;;17.23;10.07;;;;;;;3.11;100.00;100715.34;4884612;29;20044;-79
2022/12/08 05:46:33;;;;;;;17.80;9.15;;;;;;;3.08;100.00;100714.59;4885604;29;20045;-74
2022/12/08 05:49:00;;;;;;;18.70;9.10;;;;;;;3.06;100.00;100713.75;4886688;29;20040;-77
2022/12/08 05:51:26;;;;;;;18.88;10.27;;;;;;;3.05;100.00;100710.25;4880586;29;20041;-76
2022/12/08 05:53:52;;;;;;;20.90;10.85;;;;;;;3.04;100.00;100715.59;4888285;29;20045;-76
2022/12/08 05:56:18;;;;;;;18.63;9.50;;;;;;;3.01;100.00;100710.41;4885200;29;20041;-75
2022/12/08 05:58:43;;;;;;;17.83;9.93;;;;;;;3.05;100.00;100705.00;4889229;29;20229;-76
2022/12/08 06:01:20;;;;;;;20.45;9.65;;;;;;;3.02;100.00;100704.25;4889193;29;20068;-75
2022/12/08 06:03:45;;;;;;;22.35;9.82;;;;;;;3.03;100.00;100708.63;4889066;29;20036;-76
2022/12/08 06:06:11;;;;;;;18.15;9.25;;;;;;;3.04;100.00;100698.00;4885425;29;20040;-78
2022/12/08 06:08:36;;;;;;;21.52;9.20;;;;;;;3.02;100.00;100707.75;4886745;29;20045;-76
2022/12/08 06:11:08;;;;;;;17.73;10.32;;;;;;;2.99;100.00;100699.94;4884251;29;20056;-75
2022/12/08 06:13:34;;;;;;;20.15;9.48;;;;;;;2.96;100.00;100707.09;4885190;29;20055;-75
2022/12/08 06:16:04;;;;;;;16.85;7.88;;;;;;;2.97;100.00;100701.78;4884710;29;20048;-76
2022/12/08 06:18:29;;;;;;;17.65;6.90;;;;;;;2.91;100.00;100699.34;4892447;29;20076;-75
2022/12/08 06:21:03;;;;;;;16.65;6.65;;;;;;;2.91;100.00;100709.00;4887207;29;20052;-78
2022/12/08 06:23:29;;;;;;;12.75;6.60;;;;;;;2.93;100.00;100701.94;4883720;29;20048;-75
2022/12/08 06:25:54;;;;;;;13.07;7.70;;;;;;;2.91;100.00;100709.00;4884397;29;20051;-77
2022/12/08 06:28:20;;;;;;;16.40;6.13;;;;;;;2.87;100.00;100703.00;4883254;29;20048;-74
2022/12/08 06:30:45;;;;;;;12.13;5.05;;;;;;;2.78;100.00;100706.81;4893494;29;20044;-75
2022/12/08 06:33:11;;;;;;;14.43;5.13;;;;;;;2.81;100.00;100711.97;4895856;29;20049;-77
2022/12/08 06:35:36;;;;;;;6.90;3.30;;;;;;;2.71;100.00;100709.69;4884815;29;20066;-76
2022/12/08 06:38:02;;;;;;;8.25;2.80;;;;;;;2.68;100.00;100708.03;4887206;29;20041;-76
2022/12/08 06:40:27;;;;;;;5.30;2.17;;;;;;;2.60;100.00;100704.78;4886561;29;20051;-76
2022/12/08 06:42:52;;;;;;;3.30;2.38;;;;;;;2.62;100.00;100705.59;4882136;29;20122;-76
2022/12/08 06:45:18;;;;;;;4.18;2.25;;;;;;;2.58;100.00;100709.25;4885053;29;20053;-77
2022/12/08 06:47:47;;;;;;;3.63;2.22;;;;;;;2.56;100.00;100708.41;4885313;29;20067;-76
2022/12/08 06:50:13;;;;;;;3.03;2.08;;;;;;;2.59;100.00;100721.47;4881967;29;20212;-77
2022/12/08 06:52:39;;;;;;;4.47;2.10;;;;;;;2.57;100.00;100716.28;4885264;29;20538;-76
2022/12/08 06:55:06;;;;;;;4.13;2.33;;;;;;;2.63;100.00;100711.72;4879845;29;20104;-77
2022/12/08 06:57:31;;;;;;;5.57;2.35;;;;;;;2.60;100.00;100713.53;4881698;29;20074;-78
2022/12/08 06:59:57;;;;;;;5.78;2.22;;;;;;;2.60;100.00;100715.31;4878422;29;20479;-77
2022/12/08 07:02:22;;;;;;;4.75;2.72;;;;;;;2.64;100.00;100713.44;4878469;29;20037;-76
2022/12/08 07:04:47;;;;;;;5.80;2.78;;;;;;;2.62;100.00;100713.50;4876731;29;20040;-77
2022/12/08 07:07:13;;;;;;;8.60;3.85;;;;;;;2.69;100.00;100714.16;4887867;29;20040;-76
2022/12/08 07:09:38;;;;;;;5.43;2.80;;;;;;;2.71;100.00;100713.19;4890334;29;20060;-76
2022/12/08 07:12:04;;;;;;;8.40;3.40;;;;;;;2.68;100.00;100713.28;4884243;29;20036;-74
2022/12/08 07:14:29;;;;;;;4.80;2.85;;;;;;;2.70;100.00;100714.09;4881778;29;20048;-77
2022/12/08 07:16:55;;;;;;;5.88;3.67;;;;;;;2.70;100.00;100718.50;4881318;29;20049;-76
2022/12/08 07:19:20;;;;;;;8.27;3.78;;;;;;;2.71;100.00;100714.94;4885450;29;20029;-75
2022/12/08 07:21:46;;;;;;;7.75;3.58;;;;;;;2.79;100.00;100726.94;4880251;29;20044;-76
2022/12/08 07:24:14;;;;;;;6.60;3.47;;;;;;;2.82;100.00;100723.38;4879770;29;20045;-76
2022/12/08 07:26:40;;;;;;;8.18;4.05;;;;;;;2.80;100.00;100730.44;4884781;29;20062;-77
2022/12/08 07:29:06;;;;;;;6.05;3.92;;;;;;;2.79;100.00;100726.09;4881862;29;20044;-74
2022/12/08 07:31:31;;;;;;;6.82;4.18;;;;;;;2.82;100.00;100724.22;4867530;29;20695;-75
2022/12/08 07:33:57;;;;;;;8.70;4.85;;;;;;;2.85;100.00;100731.16;4877567;29;20049;-76
2022/12/08 07:36:23;;;;;;;12.95;5.30;;;;;;;2.88;100.00;100727.56;4874811;29;20052;-76
2022/12/08 07:38:52;;;;;;;16.52;5.40;;;;;;;2.82;100.00;100728.63;4882154;29;20040;-75
2022/12/08 07:41:19;;;;;;;10.13;5.38;;;;;;;2.75;100.00;100733.22;4879921;29;20470;-75
2022/12/08 07:43:45;;;;;;;6.18;4.28;;;;;;;2.77;100.00;100717.41;4892904;29;20037;-76
2022/12/08 07:46:16;;;;;;;9.82;5.30;;;;;;;2.82;100.00;100715.47;4881122;29;20037;-76
2022/12/08 07:48:43;;;;;;;7.70;5.22;;;;;;;2.75;100.00;100714.78;4885150;29;20128;-74
2022/12/08 07:51:11;;;;;;;9.10;5.00;;;;;;;2.73;100.00;100700.84;4887941;29;20068;-76
2022/12/08 07:53:38;;;;;;;9.68;5.63;;;;;;;2.79;100.00;100707.66;4887811;29;20132;-75
2022/12/08 07:56:05;;;;;;;10.63;5.60;;;;;;;2.75;100.00;100704.25;4895266;29;20491;-75
2022/12/08 07:58:31;;;;;;;16.60;6.65;;;;;;;2.77;100.00;100710.34;4889293;29;20048;-75
2022/12/08 08:00:56;;;;;;;11.40;6.32;;;;;;;2.78;100.00;100714.72;4887847;29;20032;-76
2022/12/08 08:03:22;;;;;;;8.82;5.43;;;;;;;2.79;100.00;100720.84;4875654;29;20041;-76
2022/12/08 08:05:48;;;;;;;9.10;4.90;;;;;;;2.80;100.00;100718.13;4881072;29;20070;-77
2022/12/08 08:08:15;;;;;;;9.02;5.10;;;;;;;2.80;100.00;100718.13;4886322;29;20041;-76
2022/12/08 08:10:40;;;;;;;12.23;5.30;;;;;;;2.79;100.00;100718.19;4880594;29;20141;-75
2022/12/08 08:13:07;;;;;;;13.93;4.97;;;;;;;2.81;100.00;100722.53;4884806;29;20466;-76
2022/12/08 08:15:33;;;;;;;8.07;4.50;;;;;;;2.81;100.00;100721.63;4879693;29;20034;-76
2022/12/08 08:17:58;;;;;;;9.85;5.28;;;;;;;2.88;100.00;100717.91;4875159;29;20041;-75
2022/12/08 08:20:24;;;;;;;9.27;4.72;;;;;;;2.89;100.00;100719.59;4883929;29;20931;-75
2022/12/08 08:22:50;;;;;;;11.52;5.05;;;;;;;2.90;100.00;100720.47;4872793;29;20053;-74
2022/12/08 08:25:17;;;;;;;9.20;4.82;;;;;;;2.98;100.00;100727.19;4875898;29;20044;-77
2022/12/08 08:27:44;;;;;;;8.80;4.65;;;;;;;2.89;100.00;100724.88;4878515;29;20033;-75
2022/12/08 08:30:11;;;;;;;8.57;5.10;;;;;;;2.83;100.00;100723.31;4883191;29;20151;-75
2022/12/08 08:32:37;;;;;;;9.35;5.43;;;;;;;2.88;100.00;100723.16;4882548;29;20057;-75
2022/12/08 08:35:04;;;;;;;9.75;5.10;;;;;;;2.96;100.00;100720.25;4882509;29;20056;-76
2022/12/08 08:37:29;;;;;;;9.30;5.03;;;;;;;2.90;100.00;100726.59;4866699;29;20163;-75
2022/12/08 08:39:55;;;;;;;10.52;4.18;;;;;;;2.89;100.00;100722.25;4880083;29;20078;-73
2022/12/08 08:42:21;;;;;;;7.75;3.78;;;;;;;2.92;100.00;100723.94;4879194;29;20667;-74
2022/12/08 08:44:46;;;;;;;7.07;3.78;;;;;;;2.99;100.00;100723.66;4880088;29;20048;-76
2022/12/08 08:47:11;;;;;;;7.43;4.55;;;;;;;3.04;100.00;100727.00;4876947;29;20048;-76
2022/12/08 08:49:37;;;;;;;8.57;4.93;;;;;;;3.04;100.00;100726.13;4878380;29;20041;-75
2022/12/08 08:52:03;;;;;;;8.45;4.43;;;;;;;3.00;100.00;100722.72;4880349;29;20052;-76
2022/12/08 08:54:30;;;;;;;7.57;4.20;;;;;;;3.02;100.00;100735.88;4874299;29;20040;-76
2022/12/08 08:56:57;;;;;;;7.30;3.92;;;;;;;3.08;100.00;100730.38;4879420;29;20432;-75
2022/12/08 08:59:22;;;;;;;7.28;3.70;;;;;;;3.08;100.00;100722.50;4870976;29;20387;-76
2022/12/08 09:01:48;;;;;;;7.85;4.05;;;;;;;3.10;100.00;100729.41;4871955;29;20040;-76
2022/12/08 09:04:13;;;;;;;6.72;4.13;;;;;;;3.11;100.00;100730.25;4870352;29;20067;-75
2022/12/08 09:06:39;;;;;;;7.10;3.22;;;;;;;3.04;100.00;100731.41;4879511;29;20052;-74
2022/12/08 09:09:05;;;;;;;5.90;3.30;;;;;;;3.09;100.00;100729.47;4862159;29;20038;-76
2022/12/08 09:11:31;;;;;;;5.53;2.80;;;;;;;3.04;100.00;100726.13;4867212;29;20588;-74
2022/12/08 09:13:57;;;;;;;6.63;2.90;;;;;;;3.08;100.00;100728.63;4869457;29;20048;-74
2022/12/08 09:16:22;;;;;;;3.92;1.95;;;;;;;3.02;100.00;100726.19;4877410;29;20037;-75
2022/12/08 09:18:48;;;;;;;4.20;2.10;;;;;;;3.10;100.00;100723.28;4862666;29;20040;-76
2022/12/08 09:21:21;;;;;;;8.95;2.90;;;;;;;3.04;100.00;100724.34;4877139;29;20143;-77
2022/12/08 09:23:46;;;;;;;;;;;;;;;3.14;100.00;100718.78;4883215;29;20033;-76
2022/12/08 09:26:12;;;;;;;2.92;1.55;;;;;;;3.12;100.00;100726.75;4874592;29;20381;-74
2022/12/08 09:28:37;;;;;;;3.85;1.88;;;;;;;3.19;100.00;100735.28;4872761;29;20048;-75
2022/12/08 09:31:03;;;;;;;4.20;1.95;;;;;;;3.14;100.00;100734.59;4879712;29;20048;-76
2022/12/08 09:33:29;;;;;;;4.03;2.42;;;;;;;3.21;100.00;100734.31;4876734;29;20059;-76
2022/12/08 09:35:54;;;;;;;6.35;3.20;;;;;;;3.25;100.00;100733.28;4878488;29;20040;-75
2022/12/08 09:38:20;;;;;;;4.88;2.10;;;;;;;3.28;100.00;100727.91;4872078;29;20550;-75
2022/12/08 09:40:51;;;;;;;3.53;2.00;;;;;;;3.30;100.00;100735.75;4879036;29;20764;-75
2022/12/08 09:43:46;;;;;;;3.88;2.22;;;;;;;3.33;100.00;100733.03;4879869;29;20037;-74
2022/12/08 09:46:16;;;;;;;2.97;2.22;;;;;;;3.28;100.00;100733.19;4875673;29;20049;-75
2022/12/08 09:48:54;;;;;;;5.28;2.33;;;;;;;3.41;100.00;100732.75;4872370;29;20033;-77
2022/12/08 09:51:23;;;;;;;5.22;2.50;;;;;;;3.63;100.00;100733.72;4878788;29;20044;-75
2022/12/08 09:54:13;;;;;;;8.05;3.70;;;;;;;3.48;100.00;100739.53;4879341;29;20051;-76
2022/12/08 09:56:39;;;;;;;9.05;4.85;;;;;;;3.56;100.00;100734.81;4862244;29;20116;-76
2022/12/08 09:59:07;;;;;;;8.10;5.68;;;;;;;3.62;100.00;100740.75;4880745;29;20577;-75
2022/12/08 10:01:40;;;;;;;8.85;4.32;;;;;;;3.62;100.00;100732.84;4874258;29;20136;-76
2022/12/08 10:04:36;;;;;;;13.85;5.13;;;;;;;3.59;100.00;100737.38;4881723;29;20071;-75
2022/12/08 10:07:42;;;;;;;9.18;4.88;;;;;;;3.67;100.00;100740.59;4868774;29;20128;-75
2022/12/08 10:10:28;;;;;;;9.05;5.28;;;;;;;3.64;100.00;100736.28;4869224;29;20477;-74
2022/12/08 10:13:07;;;;;;;7.38;4.30;;;;;;;3.69;100.00;100730.84;4872713;29;20510;-75
2022/12/08 10:15:32;;;;;;;7.00;4.75;;;;;;;3.71;100.00;100736.91;4874332;29;20165;-76
2022/12/08 10:18:01;;;;;;;7.00;3.72;;;;;;;3.66;100.00;100727.44;4881845;29;20596;-76
2022/12/08 10:20:36;;;;;;;7.35;4.10;;;;;;;3.64;100.00;100724.88;4879953;29;20041;-76
2022/12/08 10:23:19;;;;;;;7.03;3.80;;;;;;;3.73;100.00;100710.50;4882149;29;20068;-75
2022/12/08 10:25:49;;;;;;;;;;;;;;;3.57;100.00;100713.72;4896662;29;20052;-76
2022/12/08 10:28:15;;;;;;;5.75;3.45;;;;;;;3.61;100.00;100710.03;4881740;29;20002;-76
2022/12/08 10:30:41;;;;;;;6.28;2.97;;;;;;;3.62;100.00;100713.53;4875285;29;20113;-76
2022/12/08 10:33:14;;;;;;;7.32;3.03;;;;;;;3.47;100.00;100707.06;4880780;29;20132;-75
2022/12/08 10:35:46;;;;;;;10.38;3.78;;;;;;;3.56;100.00;100711.97;4891866;29;20143;-76
2022/12/08 10:38:25;;;;;;;5.97;3.75;;;;;;;3.61;100.00;100704.78;4882164;29;20040;-74
2022/12/08 10:40:53;;;;;;;6.05;3.00;;;;;;;3.59;100.00;100696.03;4873837;29;20037;-76
2022/12/08 10:43:25;;;;;;;7.05;3.08;;;;;;;3.67;100.00;100692.28;4875293;29;20037;-76
2022/12/08 10:45:54;;;;;;;4.50;2.80;;;;;;;3.75;100.00;100682.28;4878658;29;20052;-75
2022/12/08 10:48:31;;;;;;;5.90;3.10;;;;;;;3.71;100.00;100686.81;4875471;29;20513;-76
2022/12/08 10:50:58;;;;;;;4.88;2.92;;;;;;;3.82;100.00;100687.28;4886529;29;20124;-77
2022/12/08 10:53:26;;;;;;;8.07;2.95;;;;;;;3.84;100.00;100687.22;4878297;29;20694;-75
2022/12/08 10:56:06;;;;;;;8.48;4.60;;;;;;;3.68;100.00;100683.44;4888371;29;20047;-75
2022/12/08 10:58:42;;;;;;;6.95;3.53;;;;;;;3.82;100.00;100684.66;4875721;29;20049;-75
2022/12/08 11:01:19;;;;;;;7.53;3.78;;;;;;;3.69;100.00;100686.00;4884077;29;20104;-76
2022/12/08 11:03:44;;;;;;;6.65;2.90;;;;;;;3.88;100.00;100691.47;4881594;29;20075;-76
2022/12/08 11:06:15;;;;;;;6.25;2.90;;;;;;;3.87;100.00;100687.97;4878790;29;20148;-75
2022/12/08 11:08:53;;;;;;;5.60;2.85;;;;;;;3.81;100.00;100701.38;4878998;29;20409;-76
2022/12/08 11:11:20;;;;;;;8.15;2.95;;;;;;;3.82;100.00;100700.47;4877446;29;20060;-75
2022/12/08 11:13:48;;;;;;;4.05;2.28;;;;;;;3.64;100.00;100694.09;4874508;29;20045;-76
2022/12/08 11:16:15;;;;;;;4.55;2.15;;;;;;;3.82;100.00;100699.63;4876034;29;20339;-76
2022/12/08 11:18:53;;;;;;;2.88;2.50;;;;;;;3.72;100.00;100706.16;4883851;29;20059;-76
2022/12/08 11:21:19;;;;;;;2.78;1.88;;;;;;;3.65;100.00;100687.03;4879793;29;20041;-75
2022/12/08 11:23:49;;;;;;;5.30;2.13;;;;;;;3.76;100.00;100698.03;4880693;29;20798;-77
2022/12/08 11:26:27;;;;;;;3.20;2.15;;;;;;;3.91;100.00;100688.69;4884687;29;20089;-76
2022/12/08 11:28:53;;;;;;;4.30;3.08;;;;;;;3.92;100.00;100694.84;4872157;29;20101;-75
2022/12/08 11:31:32;;;;;;;5.40;2.67;;;;;;;3.90;100.00;100697.53;4877184;29;20516;-74